首页
METAR-TAF:

METAR-TAF

机场 :

Hammond Northshore Regional Airport

哈蒙德, 路易斯安那州, 美国

纬度: 30-31-15N, 经度: 090-25-03W, 海拔: 13米

当前天气观测

该预报发布于21分钟前的14:55 UTC
风速8节,风向西北
温度 8°C
湿度 57%
气压 1015 hPa
能見度: 16.1公里
天空无云

METAR: KHDC 151455Z AUTO 31008KT 10SM CLR 08/00 A2998 RMK AO2

时间: 09:16 (15:16 UTC)

预报

该预报发布于3小时和34分钟前的11:42 UTC
预报有效从15日的 12点(UTC)到 16日的 12点(UTC)
风速5节,风向西转西北
能見度: 10公里
天空无云
从 15日的 1700点(UTC)
风速10节,风向西转西北,有时为18节阵风
能見度: 10公里
天空无云
从 16日的 0100点(UTC)
风速7节,风向西
能見度: 10公里
天空无云

TAF: KHDC 151142Z 1512/1612 29005KT P6SM SKC FM151700 29010G18KT P6SM SKC FM160100 27007KT P6SM SKC

超过4000个机场的气象观测和天气预报(METAR&TAF报告)。

可查询的气象台以黄色和红色小点在地图上表示。

将鼠标移到小点上方,可查看气象台名称。

然后点击查看天气观测和预报。

如需切换地图:点击带黑十字的绿色按钮放大地图;点击带横线的绿色按钮缩小地图;或者点击绿色箭头查看邻近地区的地图。


METAR-TAF: